createdAt,value
2018-11-22T00:00:57.470Z,58.13
2018-11-22T00:03:27.491Z,62.40
2018-11-22T00:05:57.206Z,60.50
2018-11-22T00:08:27.012Z,58.50
2018-11-22T00:10:56.799Z,57.67
2018-11-22T00:13:26.603Z,59.97
2018-11-22T00:15:56.735Z,60.80
2018-11-22T00:18:26.592Z,58.60
2018-11-22T00:20:56.386Z,56.07
2018-11-22T00:23:26.215Z,57.13
2018-11-22T00:25:56.003Z,52.20
2018-11-22T00:28:25.745Z,61.00
2018-11-22T00:30:56.125Z,56.77
2018-11-22T00:33:26.065Z,58.57
2018-11-22T00:35:55.976Z,54.47
2018-11-22T00:38:26.246Z,56.47
2018-11-22T00:40:56.277Z,56.57
2018-11-22T00:43:26.500Z,61.00
2018-11-22T00:45:56.258Z,56.83
2018-11-22T00:48:25.989Z,57.60
2018-11-22T00:50:55.972Z,56.77
2018-11-22T00:53:25.987Z,57.40
2018-11-22T00:55:56.031Z,55.47
2018-11-22T00:58:25.792Z,57.10
2018-11-22T01:00:55.626Z,58.07
2018-11-22T01:03:25.579Z,55.27
2018-11-22T01:05:55.803Z,59.97
2018-11-22T01:08:25.695Z,58.60
2018-11-22T01:10:55.501Z,58.80
2018-11-22T01:13:25.275Z,57.53
2018-11-22T01:15:54.936Z,56.23
2018-11-22T01:18:24.700Z,58.37
2018-11-22T01:20:54.389Z,55.83
2018-11-22T01:23:24.399Z,56.43
2018-11-22T01:25:54.429Z,56.60
2018-11-22T01:28:24.579Z,61.23
2018-11-22T01:30:54.690Z,58.83
2018-11-22T01:33:26.096Z,54.97
2018-11-22T01:35:54.185Z,57.33
2018-11-22T01:38:23.861Z,59.70
2018-11-22T01:40:53.594Z,53.97
2018-11-22T01:43:23.506Z,57.33
2018-11-22T01:45:53.155Z,57.40
2018-11-22T01:48:22.913Z,54.97
2018-11-22T01:50:52.625Z,59.23
2018-11-22T01:53:22.535Z,56.27
2018-11-22T01:55:52.271Z,57.43
2018-11-22T01:58:22.066Z,55.93
2018-11-22T02:00:51.967Z,61.33
2018-11-22T02:03:21.614Z,57.83
2018-11-22T02:05:51.370Z,56.77
2018-11-22T02:08:21.164Z,61.63
2018-11-22T02:10:51.176Z,64.40
2018-11-22T02:13:21.192Z,58.63
2018-11-22T02:15:50.996Z,60.70
2018-11-22T02:18:20.682Z,59.37
2018-11-22T02:20:50.493Z,60.93
2018-11-22T02:23:20.229Z,64.57
2018-11-22T02:25:50.365Z,62.07
2018-11-22T02:28:20.119Z,66.37
2018-11-22T02:30:49.895Z,60.93
2018-11-22T02:33:19.723Z,67.07
2018-11-22T02:35:50.084Z,65.07
2018-11-22T02:38:19.734Z,64.40
2018-11-22T02:40:49.555Z,66.50
2018-11-22T02:43:19.719Z,69.53
2018-11-22T02:45:49.432Z,66.23
2018-11-22T02:48:19.234Z,64.43
2018-11-22T02:50:48.895Z,69.50
2018-11-22T02:53:18.685Z,71.90
2018-11-22T02:55:48.546Z,66.67
2018-11-22T02:58:21.794Z,68.63
2018-11-22T03:00:51.527Z,64.00
2018-11-22T03:03:21.306Z,67.03
2018-11-22T03:05:51.481Z,70.50
2018-11-22T03:08:21.655Z,67.30
2018-11-22T03:10:54.301Z,75.87
2018-11-22T03:13:24.176Z,68.40
2018-11-22T03:15:54.084Z,68.10
2018-11-22T03:18:30.289Z,72.53
2018-11-22T03:21:00.078Z,67.27
2018-11-22T03:23:29.810Z,71.80
2018-11-22T03:25:59.646Z,67.80
2018-11-22T03:28:29.384Z,68.37
2018-11-22T03:30:59.331Z,69.57
2018-11-22T03:33:29.886Z,70.57
2018-11-22T03:35:59.973Z,67.97
2018-11-22T03:38:29.830Z,72.20
2018-11-22T03:40:59.570Z,67.43
2018-11-22T03:43:29.714Z,66.10
2018-11-22T03:46:01.615Z,70.57
2018-11-22T03:48:31.833Z,70.70
2018-11-22T03:51:01.616Z,69.70
2018-11-22T03:53:31.354Z,70.53
2018-11-22T03:56:01.275Z,67.37
2018-11-22T03:58:31.026Z,67.00
2018-11-22T04:01:00.900Z,67.53
2018-11-22T04:03:30.718Z,70.33
2018-11-22T04:06:00.517Z,63.13
2018-11-22T04:08:30.706Z,61.43
2018-11-22T04:11:00.470Z,67.70
2018-11-22T04:13:30.153Z,64.57
2018-11-22T04:16:00.809Z,64.33
2018-11-22T04:18:30.466Z,73.43
2018-11-22T04:21:00.370Z,65.73
2018-11-22T04:23:30.503Z,66.97
2018-11-22T04:26:00.288Z,57.63
2018-11-22T04:28:30.301Z,64.70
2018-11-22T04:31:00.095Z,62.77
2018-11-22T04:33:29.823Z,59.63
2018-11-22T04:35:59.666Z,61.07
2018-11-22T04:38:29.657Z,61.40
2018-11-22T04:40:59.468Z,59.93
2018-11-22T04:43:29.300Z,63.03
2018-11-22T04:45:59.466Z,62.70
2018-11-22T04:48:29.593Z,63.17
2018-11-22T04:50:59.380Z,61.87
2018-11-22T04:53:29.376Z,61.23
2018-11-22T04:55:59.583Z,60.03
2018-11-22T04:58:29.623Z,60.87
2018-11-22T05:00:59.629Z,62.80
2018-11-22T05:03:29.609Z,58.20
2018-11-22T05:05:59.559Z,59.03
2018-11-22T05:08:29.524Z,55.60
2018-11-22T05:10:59.327Z,58.13
2018-11-22T05:13:29.594Z,54.17
2018-11-22T05:15:59.713Z,54.17
2018-11-22T05:18:29.939Z,56.27
2018-11-22T05:20:59.705Z,53.50
2018-11-22T05:23:30.447Z,50.63
2018-11-22T05:25:59.459Z,51.77
2018-11-22T05:28:29.216Z,54.07
2018-11-22T05:30:59.030Z,50.73
2018-11-22T05:33:29.099Z,50.87
2018-11-22T05:35:59.066Z,50.07
2018-11-22T05:38:29.378Z,55.27
2018-11-22T05:40:59.094Z,52.43
2018-11-22T05:43:28.876Z,53.97
2018-11-22T05:45:58.673Z,51.37
2018-11-22T05:48:28.564Z,52.30
2018-11-22T05:50:58.401Z,55.00
2018-11-22T05:53:28.110Z,55.03
2018-11-22T05:55:58.165Z,52.93
2018-11-22T05:58:28.004Z,53.07
2018-11-22T06:00:59.415Z,56.83
2018-11-22T06:03:29.157Z,53.37
2018-11-22T06:05:59.025Z,51.67
2018-11-22T06:08:28.819Z,49.87
2018-11-22T06:10:58.613Z,54.63
2018-11-22T06:13:28.503Z,51.07
2018-11-22T06:15:58.768Z,53.60
2018-11-22T06:18:28.473Z,52.77
2018-11-22T06:20:58.230Z,51.97
2018-11-22T06:23:28.098Z,53.97
2018-11-22T06:25:57.918Z,55.90
2018-11-22T06:28:27.610Z,54.63
2018-11-22T06:30:57.848Z,51.10
2018-11-22T06:33:27.657Z,49.17
2018-11-22T06:35:57.449Z,52.43
2018-11-22T06:38:27.345Z,56.40
2018-11-22T06:40:57.821Z,56.70
2018-11-22T06:43:27.647Z,53.90
2018-11-22T06:45:57.444Z,56.17
2018-11-22T06:48:27.162Z,52.00
2018-11-22T06:50:58.320Z,55.60
2018-11-22T06:53:27.574Z,57.80
2018-11-22T06:55:57.483Z,57.97
2018-11-22T06:58:27.332Z,56.53
2018-11-22T07:00:57.255Z,57.40
2018-11-22T07:03:27.051Z,56.50
2018-11-22T07:05:56.915Z,58.93
2018-11-22T07:08:26.762Z,55.47
2018-11-22T07:10:57.079Z,59.33
2018-11-22T07:13:27.156Z,56.63
2018-11-22T07:15:57.447Z,53.07
2018-11-22T07:18:27.948Z,59.10
2018-11-22T07:20:57.893Z,55.03
2018-11-22T07:23:28.149Z,53.97
2018-11-22T07:25:58.414Z,55.03
2018-11-22T07:28:28.564Z,58.53
2018-11-22T07:30:58.677Z,61.40
2018-11-22T07:33:28.638Z,58.57
2018-11-22T07:35:58.404Z,54.37
2018-11-22T07:38:28.476Z,55.77
2018-11-22T07:40:58.669Z,53.20
2018-11-22T07:43:28.602Z,56.30
2018-11-22T07:45:58.539Z,58.33
2018-11-22T07:48:28.223Z,55.53
2018-11-22T07:50:58.265Z,60.07
2018-11-22T07:53:28.373Z,50.47
2018-11-22T07:55:58.204Z,54.63
2018-11-22T07:58:27.903Z,50.33
2018-11-22T08:00:57.659Z,53.77
2018-11-22T08:03:27.451Z,55.13
2018-11-22T08:05:57.470Z,51.70
2018-11-22T08:08:27.339Z,51.23
2018-11-22T08:10:57.098Z,50.03
2018-11-22T08:13:27.063Z,51.50
2018-11-22T08:15:56.796Z,49.97
2018-11-22T08:18:26.583Z,50.40
2018-11-22T08:20:56.615Z,51.47
2018-11-22T08:23:26.463Z,52.07
2018-11-22T08:25:57.079Z,49.57
2018-11-22T08:28:27.088Z,56.37
2018-11-22T08:30:57.716Z,50.57
2018-11-22T08:33:27.732Z,49.87
2018-11-22T08:35:57.997Z,48.47
2018-11-22T08:38:28.059Z,48.53
2018-11-22T08:40:58.317Z,49.67
2018-11-22T08:43:28.380Z,52.50
2018-11-22T08:45:58.249Z,52.93
2018-11-22T08:50:58.411Z,45.20
2018-11-22T12:15:52.015Z,31.43
2018-11-22T12:18:22.111Z,30.83
2018-11-22T12:20:52.166Z,30.33
2018-11-22T12:23:22.722Z,33.23
2018-11-22T12:25:53.195Z,33.23
2018-11-22T12:28:23.829Z,35.67
2018-11-22T12:30:53.920Z,37.57
2018-11-22T12:33:40.885Z,31.27
2018-11-22T12:36:16.009Z,35.83
2018-11-22T12:38:52.554Z,29.93
2018-11-22T12:41:22.990Z,36.63
2018-11-22T12:43:53.145Z,33.97
2018-11-22T12:46:23.324Z,31.37
2018-11-22T12:48:53.255Z,33.30
2018-11-22T12:51:23.479Z,34.83
2018-11-22T12:53:53.586Z,35.57
2018-11-22T12:56:24.106Z,33.27
2018-11-22T12:58:54.346Z,37.33
2018-11-22T13:01:28.609Z,37.53
2018-11-22T13:03:58.499Z,36.87
2018-11-22T13:06:28.565Z,34.83
2018-11-22T13:08:58.911Z,32.27
2018-11-22T13:11:28.930Z,32.20
2018-11-22T13:13:59.515Z,29.63
2018-11-22T13:16:29.440Z,28.87
2018-11-22T13:18:59.721Z,31.10
2018-11-22T13:21:29.870Z,30.27
2018-11-22T13:23:59.947Z,39.77
2018-11-22T13:26:29.809Z,33.53
2018-11-22T13:28:59.769Z,31.20
2018-11-22T13:31:29.615Z,30.53
2018-11-22T13:34:00.503Z,33.37
2018-11-22T13:36:31.504Z,30.77
2018-11-22T13:39:02.248Z,33.17
2018-11-22T13:41:33.038Z,34.53
2018-11-22T13:44:03.775Z,38.70
2018-11-22T13:46:34.179Z,30.37
2018-11-22T13:49:06.162Z,31.87
2018-11-22T13:51:36.736Z,28.20
2018-11-22T13:54:07.644Z,31.87
2018-11-22T13:56:38.261Z,27.80
2018-11-22T13:59:08.819Z,29.40
2018-11-22T14:01:39.220Z,27.70
2018-11-22T14:04:09.381Z,26.80
2018-11-22T14:06:39.465Z,29.17
2018-11-22T14:09:11.900Z,29.33
2018-11-22T14:11:42.405Z,27.50
2018-11-22T14:14:13.780Z,30.27
2018-11-22T14:16:44.341Z,30.93
2018-11-22T14:19:14.526Z,29.20
2018-11-22T14:21:45.424Z,30.63
2018-11-22T14:24:15.553Z,28.67
2018-11-22T14:26:45.538Z,26.67
2018-11-22T14:29:15.681Z,30.90
2018-11-22T14:31:46.470Z,32.10
2018-11-22T14:34:17.407Z,28.33
2018-11-22T14:36:47.474Z,28.33
2018-11-22T14:39:17.571Z,32.20
2018-11-22T14:41:47.788Z,30.90
2018-11-22T14:44:18.045Z,28.57
2018-11-22T14:46:48.316Z,29.10
2018-11-22T14:49:18.707Z,28.43
2018-11-22T14:51:51.279Z,29.13
2018-11-22T14:54:22.175Z,28.40
2018-11-22T14:56:52.350Z,26.93
2018-11-22T14:59:22.425Z,27.83
2018-11-22T15:01:52.521Z,27.77
2018-11-22T15:04:22.697Z,25.33
2018-11-22T15:06:52.981Z,27.20
2018-11-22T15:09:23.141Z,27.33
2018-11-22T15:11:53.532Z,28.07
2018-11-22T15:14:23.672Z,28.47
2018-11-22T15:16:55.027Z,29.53
2018-11-22T15:19:25.849Z,28.60
2018-11-22T15:21:55.946Z,27.53
2018-11-22T15:24:25.944Z,28.17
2018-11-22T15:26:56.732Z,30.67
2018-11-22T15:29:26.861Z,28.53
2018-11-22T15:31:56.932Z,29.50
2018-11-22T15:34:27.148Z,28.17
2018-11-22T15:36:58.322Z,27.27
2018-11-22T15:39:28.305Z,27.83
2018-11-22T15:41:58.111Z,28.40
2018-11-22T15:44:28.085Z,34.27
2018-11-22T15:46:58.128Z,27.33
2018-11-22T15:49:28.139Z,29.00
2018-11-22T15:51:58.089Z,27.20
2018-11-22T15:54:28.877Z,27.30
2018-11-22T15:56:58.877Z,29.77
2018-11-22T15:59:28.886Z,27.90
2018-11-22T16:01:59.246Z,28.70
2018-11-22T16:04:29.403Z,27.57
2018-11-22T16:06:59.663Z,28.70
2018-11-22T16:09:29.955Z,29.90
2018-11-22T16:12:00.483Z,29.23
2018-11-22T16:14:30.540Z,28.63
2018-11-22T16:17:00.702Z,31.33
2018-11-22T16:19:30.592Z,28.40
2018-11-22T16:22:00.423Z,26.57
2018-11-22T16:24:31.035Z,29.60
2018-11-22T16:27:01.165Z,28.53
2018-11-22T16:29:31.518Z,28.57
2018-11-22T16:32:02.129Z,30.37
2018-11-22T16:34:32.151Z,28.70
2018-11-22T16:37:02.146Z,28.10
2018-11-22T16:39:32.344Z,29.87
2018-11-22T16:42:02.330Z,30.13
2018-11-22T16:44:32.558Z,26.90
2018-11-22T16:47:02.667Z,28.33
2018-11-22T16:49:33.239Z,28.07
2018-11-22T16:52:03.358Z,26.10
2018-11-22T16:54:33.353Z,28.13
2018-11-22T16:57:03.275Z,30.33
2018-11-22T16:59:33.559Z,28.33
2018-11-22T17:02:03.875Z,27.43
2018-11-22T17:04:34.091Z,32.77
2018-11-22T17:07:04.340Z,29.13
2018-11-22T17:09:34.558Z,32.43
2018-11-22T17:12:04.690Z,31.17
2018-11-22T17:14:34.653Z,30.17
2018-11-22T17:17:04.819Z,33.10
2018-11-22T17:19:35.258Z,29.40
2018-11-22T17:22:05.600Z,29.40
2018-11-22T17:24:35.808Z,30.70
2018-11-22T17:27:06.111Z,29.83
2018-11-22T17:29:37.051Z,29.00
2018-11-22T17:32:07.264Z,31.33
2018-11-22T17:34:37.237Z,29.50
2018-11-22T17:37:07.904Z,29.20
2018-11-22T17:39:37.941Z,31.23
2018-11-22T17:42:07.893Z,28.50
2018-11-22T17:44:37.755Z,30.80
2018-11-22T17:47:08.659Z,32.23
2018-11-22T17:49:38.843Z,35.33
2018-11-22T17:52:09.137Z,30.80
2018-11-22T17:54:39.037Z,34.40
2018-11-22T17:57:09.279Z,29.77
2018-11-22T17:59:39.312Z,30.57
2018-11-22T18:02:09.569Z,29.07
2018-11-22T18:04:39.773Z,28.47
2018-11-22T18:07:09.753Z,29.57
2018-11-22T18:09:39.735Z,31.70
2018-11-22T18:12:09.944Z,27.10
2018-11-22T18:14:39.845Z,30.77
2018-11-22T18:17:09.764Z,31.53
2018-11-22T18:19:40.530Z,31.97
2018-11-22T18:22:10.419Z,29.03
2018-11-22T18:24:42.351Z,32.13
2018-11-22T18:27:12.242Z,30.63
2018-11-22T18:29:42.485Z,29.27
2018-11-22T18:32:12.385Z,28.40
2018-11-22T18:34:42.264Z,28.53
2018-11-22T18:37:13.442Z,29.10
2018-11-22T18:39:43.871Z,31.70
2018-11-22T18:42:13.658Z,29.83
2018-11-22T18:44:43.543Z,29.57
2018-11-22T18:47:14.157Z,28.90
2018-11-22T18:49:44.188Z,29.50
2018-11-22T18:52:14.121Z,27.67
2018-11-22T18:54:44.148Z,31.47
2018-11-22T18:57:14.963Z,30.70
2018-11-22T18:59:45.206Z,31.60
2018-11-22T19:02:15.772Z,30.47
2018-11-22T19:04:45.869Z,27.27
2018-11-22T19:07:17.101Z,30.70
2018-11-22T19:09:47.037Z,29.90
2018-11-22T19:12:17.132Z,28.87
2018-11-22T19:14:47.348Z,32.73
2018-11-22T19:17:17.523Z,28.77
2018-11-22T19:19:47.743Z,27.90
2018-11-22T19:22:23.083Z,29.23
2018-11-22T19:24:53.723Z,29.17
2018-11-22T19:27:24.395Z,28.90
2018-11-22T19:29:54.449Z,30.77
2018-11-22T19:32:24.845Z,28.23
2018-11-22T19:34:54.952Z,29.63
2018-11-22T19:37:26.019Z,26.03
2018-11-22T19:39:56.254Z,27.57
2018-11-22T19:42:28.068Z,27.27
2018-11-22T19:44:58.100Z,28.90
2018-11-22T19:47:28.585Z,30.53
2018-11-22T19:49:58.705Z,28.17
2018-11-22T19:52:29.079Z,32.50
2018-11-22T19:54:59.500Z,30.40
2018-11-22T19:57:29.688Z,33.20
2018-11-22T19:59:59.826Z,46.53
2018-11-22T20:02:29.915Z,28.03
2018-11-22T20:05:00.835Z,32.60
2018-11-22T20:07:31.056Z,26.50
2018-11-22T20:10:01.343Z,30.57
2018-11-22T20:12:32.072Z,28.20
2018-11-22T20:15:03.052Z,30.87
2018-11-22T20:17:33.802Z,30.63
2018-11-22T20:20:04.633Z,30.77
2018-11-22T20:22:35.407Z,30.43
2018-11-22T20:25:05.928Z,31.80
2018-11-22T20:27:36.002Z,29.43
2018-11-22T20:30:19.571Z,32.67
2018-11-22T20:32:49.865Z,30.23
2018-11-22T20:35:20.534Z,29.97
2018-11-22T20:37:51.602Z,31.93
2018-11-22T20:40:23.185Z,28.13
2018-11-22T20:42:54.845Z,27.57
2018-11-22T20:45:25.966Z,32.67
2018-11-22T20:47:57.738Z,30.97
2018-11-22T20:50:28.583Z,29.70
2018-11-22T20:52:58.593Z,27.30
2018-11-22T20:55:31.132Z,31.37
2018-11-22T20:58:02.818Z,28.17
2018-11-22T21:00:34.699Z,29.43
2018-11-22T21:03:04.966Z,29.73
2018-11-22T21:05:35.149Z,30.03
2018-11-22T21:08:05.246Z,29.00
2018-11-22T21:10:36.513Z,24.00
2018-11-22T21:13:06.700Z,23.07
2018-11-22T21:15:37.261Z,25.33
2018-11-22T21:18:08.642Z,25.37
2018-11-22T21:20:40.315Z,22.53
2018-11-22T21:23:10.260Z,24.73
2018-11-22T21:25:40.357Z,24.70
2018-11-22T21:28:10.211Z,25.23
2018-11-22T21:30:41.112Z,25.33
2018-11-22T21:33:11.020Z,24.27
2018-11-22T21:35:41.078Z,27.63
2018-11-22T21:38:10.972Z,29.30
2018-11-22T21:40:40.920Z,31.13
2018-11-22T21:43:11.522Z,27.50
2018-11-22T21:45:41.578Z,26.70
2018-11-22T21:48:11.967Z,26.57
2018-11-22T21:50:48.807Z,25.17
2018-11-22T21:53:19.458Z,26.73
2018-11-22T21:55:49.426Z,28.50
2018-11-22T21:58:20.035Z,27.50
2018-11-22T22:00:50.033Z,27.17
2018-11-22T22:03:19.987Z,25.47
2018-11-22T22:05:50.272Z,25.60
2018-11-22T22:08:23.266Z,27.87
2018-11-22T22:10:54.113Z,27.47
2018-11-22T22:13:24.288Z,25.93
2018-11-22T22:15:54.167Z,28.27
2018-11-22T22:18:24.454Z,26.90
2018-11-22T22:20:54.470Z,25.63
2018-11-22T22:23:24.556Z,28.77
2018-11-22T22:25:54.524Z,29.73
2018-11-22T22:28:25.172Z,30.87
2018-11-22T22:30:55.677Z,29.30
2018-11-22T22:33:26.479Z,29.57
2018-11-22T22:35:56.535Z,31.63
2018-11-22T22:38:26.687Z,31.73
2018-11-22T22:40:57.107Z,30.00
2018-11-22T22:43:27.235Z,29.80
2018-11-22T22:45:57.075Z,31.23
2018-11-22T22:48:27.005Z,31.00
2018-11-22T22:50:57.696Z,30.90
2018-11-22T22:53:28.096Z,29.90
2018-11-22T22:55:58.297Z,30.67
2018-11-22T22:58:28.181Z,34.77
2018-11-22T23:01:01.708Z,32.70
2018-11-22T23:03:32.891Z,33.10
2018-11-22T23:06:03.116Z,32.37
2018-11-22T23:08:33.119Z,32.10
2018-11-22T23:11:03.180Z,32.40
2018-11-22T23:13:33.355Z,31.57
2018-11-22T23:16:03.271Z,30.33
2018-11-22T23:18:33.957Z,30.50
2018-11-22T23:21:05.478Z,31.90
2018-11-22T23:23:36.234Z,32.60
2018-11-22T23:26:06.615Z,31.80
2018-11-22T23:31:10.184Z,33.07
2018-11-22T23:33:40.788Z,32.00
2018-11-22T23:36:11.101Z,31.17
2018-11-22T23:38:41.130Z,35.37
2018-11-22T23:41:11.620Z,33.00
2018-11-22T23:43:42.587Z,31.27
2018-11-22T23:46:12.510Z,34.03
2018-11-22T23:48:42.608Z,34.50
2018-11-22T23:51:13.225Z,32.00
2018-11-22T23:53:43.325Z,35.13
2018-11-22T23:56:13.115Z,35.23
2018-11-22T23:58:43.300Z,33.50
